Time;durP1;ratioP1;P1;durP2;ratioP2;P2;SDS_P1;SDS_P2;PMS_P1;PMS_P2;Temp;Humidity;BMP_temperature;BMP_pressure;BME280_temperature;BME280_humidity;BME280_pressure;Samples;Min_cycle;Max_cycle;Signal;HPM_P1;HPM_P2
2023/05/09 00:04:55;;;;;;;;;;;;;;;21.31;49.55;96002.03;10235342;28;2274;-65
2023/05/09 00:09:56;;;;;;;;;;;;;;;21.30;49.36;96003.88;10233504;28;1829;-65
2023/05/09 00:14:56;;;;;;;;;;;;;;;21.29;49.63;95999.66;10233831;28;1968;-65
2023/05/09 00:19:56;;;;;;;;;;;;;;;21.29;49.65;95997.00;10233855;28;1969;-64
2023/05/09 00:24:56;;;;;;;;;;;;;;;21.29;49.33;95993.63;10235792;29;1890;-65
2023/05/09 00:29:57;;;;;;;;;;;;;;;21.28;49.26;95995.44;10233051;28;1885;-65
2023/05/09 00:34:57;;;;;;;;;;;;;;;21.29;49.35;95993.63;10237534;28;1914;-65
2023/05/09 00:39:57;;;;;;;;;;;;;;;21.29;49.09;95990.97;10229405;28;2156;-65
2023/05/09 00:44:57;;;;;;;;;;;;;;;21.29;49.09;95985.69;10232343;28;1897;-65
2023/05/09 00:49:58;;;;;;;;;;;;;;;21.27;49.14;95979.91;10231680;28;2079;-65
2023/05/09 00:54:58;;;;;;;;;;;;;;;21.26;48.96;95976.47;10233102;28;1985;-65
2023/05/09 00:59:59;;;;;;;;;;;;;;;21.26;49.16;95973.03;10231255;28;5138;-65
2023/05/09 01:05:00;;;;;;;;;;;;;;;21.26;48.90;95963.28;10230764;28;1969;-65
2023/05/09 01:10:00;;;;;;;;;;;;;;;21.25;48.77;95963.53;10232310;28;2127;-65
2023/05/09 01:15:20;;;;;;;;;;;;;;;21.25;48.76;95955.63;10233769;28;2052;-64
2023/05/09 01:20:20;;;;;;;;;;;;;;;21.23;48.78;95955.91;10235487;28;2069;-65
2023/05/09 01:25:35;;;;;;;;;;;;;;;21.24;48.39;95944.31;10232076;28;1978;-65
2023/05/09 01:30:35;;;;;;;;;;;;;;;21.23;48.52;95957.75;10235828;28;1960;-65
2023/05/09 01:35:36;;;;;;;;;;;;;;;21.23;48.38;95945.38;10240364;28;1976;-65
2023/05/09 01:40:36;;;;;;;;;;;;;;;21.23;48.40;95949.84;10230847;28;2055;-65
2023/05/09 01:45:40;;;;;;;;;;;;;;;21.23;48.51;95945.38;10235964;28;1948;-65
2023/05/09 01:50:40;;;;;;;;;;;;;;;21.23;48.13;95947.22;10233481;28;2222;-65
2023/05/09 01:55:40;;;;;;;;;;;;;;;21.22;48.14;95943.81;10231253;28;5155;-65
2023/05/09 02:00:41;;;;;;;;;;;;;;;21.22;48.26;95940.38;10228085;28;1941;-65
2023/05/09 02:05:41;;;;;;;;;;;;;;;21.20;48.03;95943.28;10236231;28;2027;-65
2023/05/09 02:10:41;;;;;;;;;;;;;;;21.20;48.14;95930.13;10232416;28;2033;-65
2023/05/09 02:15:42;;;;;;;;;;;;;;;21.20;47.95;95921.41;10243224;28;1981;-65
2023/05/09 02:20:42;;;;;;;;;;;;;;;21.20;48.15;95929.31;10235462;28;2043;-65
2023/05/09 02:25:42;;;;;;;;;;;;;;;21.19;48.11;95909.28;10238564;28;2012;-65
2023/05/09 02:30:43;;;;;;;;;;;;;;;21.19;48.23;95910.06;10242708;28;1953;-65
2023/05/09 02:35:44;;;;;;;;;;;;;;;21.19;48.03;95919.81;10237745;28;1999;-64
2023/05/09 02:40:44;;;;;;;;;;;;;;;21.18;47.69;95908.50;10238604;28;1940;-65
2023/05/09 02:45:44;;;;;;;;;;;;;;;21.18;47.90;95913.78;10237485;28;1960;-65
2023/05/09 02:50:44;;;;;;;;;;;;;;;21.18;47.72;95905.88;10239102;28;2069;-65
2023/05/09 02:55:45;;;;;;;;;;;;;;;21.17;47.93;95901.66;10235432;28;4895;-65
2023/05/09 03:00:45;;;;;;;;;;;;;;;21.19;47.49;95904.00;10237593;28;2022;-65
2023/05/09 03:05:45;;;;;;;;;;;;;;;21.17;47.51;95900.84;10239915;28;1980;-64
2023/05/09 03:10:46;;;;;;;;;;;;;;;21.17;47.51;95898.22;10238783;28;1984;-65
2023/05/09 03:15:46;;;;;;;;;;;;;;;21.16;47.31;95901.94;10239246;29;1985;-65
2023/05/09 03:20:47;;;;;;;;;;;;;;;21.16;47.33;95904.56;10238934;28;2088;-65
2023/05/09 03:25:47;;;;;;;;;;;;;;;21.16;47.34;95901.94;10242201;28;1949;-64
2023/05/09 03:30:47;;;;;;;;;;;;;;;21.15;47.43;95895.06;10240761;28;1941;-64
2023/05/09 03:35:47;;;;;;;;;;;;;;;21.15;47.58;95889.78;10238003;28;1926;-65
2023/05/09 03:40:48;;;;;;;;;;;;;;;21.15;47.35;95892.44;10231934;28;2087;-65
2023/05/09 03:45:48;;;;;;;;;;;;;;;21.15;47.24;95892.44;10235028;29;2016;-64
2023/05/09 03:50:48;;;;;;;;;;;;;;;21.15;47.16;95897.72;10235678;28;2045;-64
2023/05/09 03:55:48;;;;;;;;;;;;;;;21.13;47.32;95894.56;10238319;28;5269;-64
2023/05/09 04:00:49;;;;;;;;;;;;;;;21.13;47.17;95884.81;10237730;28;1996;-64
2023/05/09 04:05:49;;;;;;;;;;;;;;;21.12;47.26;95888.53;10233788;28;2028;-64
2023/05/09 04:10:49;;;;;;;;;;;;;;;21.12;46.91;95891.16;10232828;28;1922;-64
2023/05/09 04:15:50;;;;;;;;;;;;;;;21.12;47.36;95895.63;10239978;29;1993;-64
2023/05/09 04:20:50;;;;;;;;;;;;;;;21.12;47.23;95900.91;10236064;28;1983;-65
2023/05/09 04:25:52;;;;;;;;;;;;;;;21.12;47.16;95903.53;10236537;28;1981;-64
2023/05/09 04:30:53;;;;;;;;;;;;;;;21.11;46.89;95902.75;10235366;28;2087;-64
2023/05/09 04:35:53;;;;;;;;;;;;;;;21.12;46.92;95900.91;10233849;28;1933;-64
2023/05/09 04:40:53;;;;;;;;;;;;;;;21.11;47.17;95891.41;10232706;28;1906;-64
2023/05/09 04:45:53;;;;;;;;;;;;;;;21.10;46.67;95890.63;10231959;28;2441;-64
2023/05/09 04:50:54;;;;;;;;;;;;;;;21.10;46.71;95880.09;10240196;29;2006;-64
2023/05/09 04:55:55;;;;;;;;;;;;;;;21.10;46.82;95885.38;10234154;28;4899;-64
2023/05/09 05:00:55;;;;;;;;;;;;;;;21.10;46.81;95892.47;10237299;28;2072;-64
2023/05/09 05:05:55;;;;;;;;;;;;;;;21.10;46.84;95888.00;10234804;28;1995;-63
2023/05/09 05:10:55;;;;;;;;;;;;;;;21.10;46.91;95876.66;10228939;28;2136;-63
2023/05/09 05:15:57;;;;;;;;;;;;;;;21.08;46.63;95869.03;10233056;28;2025;-63
2023/05/09 05:20:57;;;;;;;;;;;;;;;21.11;46.89;95875.59;10234789;28;2242;-63
2023/05/09 05:25:58;;;;;;;;;;;;;;;21.10;46.84;95874.03;10235173;28;2097;-62
2023/05/09 05:30:58;;;;;;;;;;;;;;;21.10;46.89;95877.47;10238366;29;1914;-64
2023/05/09 05:35:58;;;;;;;;;;;;;;;21.11;47.00;95875.59;10229561;28;2018;-63
2023/05/09 05:40:58;;;;;;;;;;;;;;;21.12;47.14;95877.19;10230283;28;2151;-63
2023/05/09 05:45:59;;;;;;;;;;;;;;;21.12;47.14;95882.44;10227874;28;2059;-64
2023/05/09 05:50:59;;;;;;;;;;;;;;;21.12;47.30;95875.34;10223594;28;2069;-64
2023/05/09 05:55:59;;;;;;;;;;;;;;;21.13;47.43;95878.75;10230865;28;4924;-64
2023/05/09 06:01:00;;;;;;;;;;;;;;;21.13;47.20;95869.00;10230752;28;2037;-64
2023/05/09 06:06:01;;;;;;;;;;;;;;;21.12;47.38;95867.44;10238241;28;2355;-64
2023/05/09 06:11:01;;;;;;;;;;;;;;;21.12;47.21;95851.63;10233872;28;1964;-64
2023/05/09 06:16:02;;;;;;;;;;;;;;;21.13;47.26;95844.47;10229692;28;2092;-65
2023/05/09 06:21:02;;;;;;;;;;;;;;;21.13;47.23;95841.84;10234918;28;1926;-64
2023/05/09 06:26:02;;;;;;;;;;;;;;;21.14;47.30;95849.50;10236606;28;1983;-65
2023/05/09 06:31:03;;;;;;;;;;;;;;;21.14;47.32;95843.44;10230901;28;1985;-65
2023/05/09 06:36:03;;;;;;;;;;;;;;;21.14;47.28;95843.44;10235691;29;2166;-64
2023/05/09 06:41:03;;;;;;;;;;;;;;;21.14;47.34;95832.88;10231875;28;2157;-64
2023/05/09 06:46:04;;;;;;;;;;;;;;;21.14;47.46;95831.03;10230068;29;1961;-65
2023/05/09 06:51:04;;;;;;;;;;;;;;;21.14;47.37;95822.34;10234876;28;1978;-64
2023/05/09 06:56:05;;;;;;;;;;;;;;;21.14;47.50;95819.69;10236701;28;4954;-65
2023/05/09 07:01:05;;;;;;;;;;;;;;;21.14;47.66;95819.69;10231952;28;1997;-65
2023/05/09 07:06:05;;;;;;;;;;;;;;;21.15;47.41;95818.63;10241399;28;1992;-65
2023/05/09 07:11:06;;;;;;;;;;;;;;;21.13;47.17;95810.22;10235494;28;1912;-65
2023/05/09 07:16:06;;;;;;;;;;;;;;;21.14;47.52;95817.88;10244827;28;2048;-64
2023/05/09 07:21:06;;;;;;;;;;;;;;;21.14;47.70;95823.13;10244342;28;2023;-65
2023/05/09 07:26:06;;;;;;;;;;;;;;;21.14;47.51;95806.53;10238577;28;2042;-65
2023/05/09 07:31:08;;;;;;;;;;;;;;;21.13;47.58;95789.13;10240887;28;1964;-65
2023/05/09 07:36:11;;;;;;;;;;;;;;;21.15;47.23;95792.25;10243836;28;2037;-65
2023/05/09 07:41:12;;;;;;;;;;;;;;;21.14;47.37;95786.22;10237639;28;1979;-65
2023/05/09 07:46:12;;;;;;;;;;;;;;;21.12;47.28;95780.44;10240255;28;2051;-63
2023/05/09 07:51:12;;;;;;;;;;;;;;;21.14;47.60;95782.81;10241140;28;1953;-64
2023/05/09 07:56:13;;;;;;;;;;;;;;;21.13;47.28;95768.81;10240206;29;4923;-64
2023/05/09 08:01:13;;;;;;;;;;;;;;;21.13;47.21;95770.66;10237079;28;2096;-65
2023/05/09 08:06:13;;;;;;;;;;;;;;;21.13;47.25;95760.91;10235762;28;2100;-64
2023/05/09 08:11:14;;;;;;;;;;;;;;;21.14;47.24;95759.88;10239108;28;2118;-65
2023/05/09 08:16:16;;;;;;;;;;;;;;;21.14;47.35;95756.44;10241529;29;1982;-65
2023/05/09 08:21:16;;;;;;;;;;;;;;;21.14;47.45;95743.25;10240578;28;2108;-64
2023/05/09 08:26:16;;;;;;;;;;;;;;;21.14;47.36;95738.00;10232657;28;2031;-65
2023/05/09 08:31:16;;;;;;;;;;;;;;;21.14;47.29;95738.00;10234669;28;1972;-65
2023/05/09 08:36:17;;;;;;;;;;;;;;;21.13;47.55;95736.41;10238415;28;2024;-64
2023/05/09 08:41:17;;;;;;;;;;;;;;;21.13;47.50;95720.59;10234719;28;1969;-64
2023/05/09 08:46:17;;;;;;;;;;;;;;;21.14;47.36;95722.19;10233620;28;1992;-64
2023/05/09 08:51:18;;;;;;;;;;;;;;;21.12;47.59;95719.81;10233893;28;1993;-64
2023/05/09 08:56:18;;;;;;;;;;;;;;;21.14;47.34;95716.91;10237278;29;4844;-63
2023/05/09 09:01:18;;;;;;;;;;;;;;;21.14;47.20;95706.38;10237179;28;2041;-64
2023/05/09 09:06:19;;;;;;;;;;;;;;;21.14;47.24;95693.19;10236317;28;2012;-64
2023/05/09 09:11:21;;;;;;;;;;;;;;;21.15;47.27;95682.34;10231623;28;1947;-64
2023/05/09 09:16:21;;;;;;;;;;;;;;;21.15;47.24;95671.00;10238863;28;2070;-64
2023/05/09 09:21:22;;;;;;;;;;;;;;;21.15;47.27;95678.91;10236106;28;2054;-64
2023/05/09 09:26:23;;;;;;;;;;;;;;;21.14;47.38;95680.78;10234217;28;2151;-64
2023/05/09 09:31:24;;;;;;;;;;;;;;;21.15;47.46;95666.53;10241608;28;1977;-64
2023/05/09 09:36:35;;;;;;;;;;;;;;;21.15;47.30;95655.19;10236896;28;2037;-63
2023/05/09 09:41:36;;;;;;;;;;;;;;;21.16;47.34;95641.75;10234644;28;2134;-64
2023/05/09 09:46:50;;;;;;;;;;;;;;;21.17;47.50;95634.63;10233957;28;1986;-64
2023/05/09 09:51:50;;;;;;;;;;;;;;;21.17;47.42;95637.25;10234761;29;1968;-64
2023/05/09 09:56:53;;;;;;;;;;;;;;;21.17;47.32;95622.22;10237506;28;2073;-65
2023/05/09 10:02:00;;;;;;;;;;;;;;;21.18;47.28;95617.75;10241297;28;1987;-64
2023/05/09 10:07:04;;;;;;;;;;;;;;;21.18;47.39;95608.00;10237516;28;2160;-64
2023/05/09 10:12:05;;;;;;;;;;;;;;;21.19;47.28;95611.41;10237683;28;2054;-63
2023/05/09 10:17:05;;;;;;;;;;;;;;;21.20;47.42;95597.16;10230802;28;1996;-64
2023/05/09 10:22:07;;;;;;;;;;;;;;;21.20;47.69;95584.00;10235397;28;2151;-64
2023/05/09 10:27:10;;;;;;;;;;;;;;;21.20;47.28;95574.25;10240903;28;1925;-64
2023/05/09 10:32:12;;;;;;;;;;;;;;;21.21;47.56;95567.88;10228652;28;2289;-64
2023/05/09 10:37:12;;;;;;;;;;;;;;;21.22;47.51;95572.09;10238425;28;1961;-64
2023/05/09 10:42:13;;;;;;;;;;;;;;;21.23;47.48;95565.75;10240916;28;2050;-64
2023/05/09 10:47:13;;;;;;;;;;;;;;;21.22;47.81;95545.75;10251767;28;1888;-64
2023/05/09 10:52:13;;;;;;;;;;;;;;;21.23;47.73;95541.22;10248079;28;1446;-63
2023/05/09 10:57:14;;;;;;;;;;;;;;;21.24;47.44;95529.63;10250551;29;4974;-64
2023/05/09 11:02:14;;;;;;;;;;;;;;;21.25;47.58;95525.91;10242839;28;1975;-64
2023/05/09 11:07:25;;;;;;;;;;;;;;;21.25;47.59;95510.91;10232925;28;1941;-64
2023/05/09 11:12:25;;;;;;;;;;;;;;;21.25;47.49;95502.19;10243321;28;1937;-64
2023/05/09 11:17:25;;;;;;;;;;;;;;;21.26;47.63;95495.88;10235482;29;2035;-64
2023/05/09 11:22:26;;;;;;;;;;;;;;;21.26;47.67;95482.69;10241378;28;2052;-64
2023/05/09 11:27:27;;;;;;;;;;;;;;;21.27;47.40;95473.72;10241950;28;1969;-64
2023/05/09 11:32:29;;;;;;;;;;;;;;;21.27;47.49;95469.22;10246092;28;2209;-64
2023/05/09 11:37:30;;;;;;;;;;;;;;;21.29;47.40;95463.69;10237945;28;1968;-63
2023/05/09 11:42:30;;;;;;;;;;;;;;;21.29;47.70;95456.53;10243863;28;1977;-64
2023/05/09 11:47:30;;;;;;;;;;;;;;;21.31;47.78;95456.28;10239601;28;1960;-64
2023/05/09 11:52:31;;;;;;;;;;;;;;;21.31;47.66;95443.84;10229957;28;2132;-64
2023/05/09 11:57:31;;;;;;;;;;;;;;;21.32;47.47;95439.38;10227799;28;5043;-64
2023/05/09 12:02:33;;;;;;;;;;;;;;;21.33;47.67;95430.41;10242175;28;1957;-64
2023/05/09 12:07:34;;;;;;;;;;;;;;;21.33;47.44;95425.13;10243408;28;1985;-64
2023/05/09 12:12:35;;;;;;;;;;;;;;;21.34;47.45;95418.78;10234800;28;1956;-64
2023/05/09 12:17:35;;;;;;;;;;;;;;;21.33;47.87;95410.06;10237232;29;2022;-64
2023/05/09 12:22:38;;;;;;;;;;;;;;;21.35;47.41;95396.63;10235666;28;1956;-64
2023/05/09 12:27:39;;;;;;;;;;;;;;;21.34;47.47;95387.13;10231961;28;1972;-64
2023/05/09 12:32:39;;;;;;;;;;;;;;;21.35;47.75;95372.91;10242131;28;2309;-64
2023/05/09 12:37:39;;;;;;;;;;;;;;;21.35;47.58;95368.38;10238574;28;1962;-64
2023/05/09 12:42:42;;;;;;;;;;;;;;;21.36;47.58;95362.06;10233213;28;1968;-64
2023/05/09 12:47:44;;;;;;;;;;;;;;;21.36;47.48;95356.78;10237298;29;1963;-64
2023/05/09 12:52:48;;;;;;;;;;;;;;;21.36;47.50;95346.25;10234832;28;1981;-64
2023/05/09 12:57:56;;;;;;;;;;;;;;;21.37;47.48;95339.88;10230965;28;4919;-62
2023/05/09 13:02:56;;;;;;;;;;;;;;;21.37;47.67;95324.06;10240949;28;2028;-64
2023/05/09 13:07:56;;;;;;;;;;;;;;;21.38;47.61;95325.63;10233091;28;2013;-64
2023/05/09 13:12:57;;;;;;;;;;;;;;;21.40;47.53;95320.06;10235037;28;2058;-65
2023/05/09 13:17:57;;;;;;;;;;;;;;;21.40;47.63;95315.59;10232945;28;2009;-64
2023/05/09 13:22:58;;;;;;;;;;;;;;;21.39;47.82;95295.56;10232680;29;2057;-63
2023/05/09 13:27:58;;;;;;;;;;;;;;;21.39;47.85;95300.81;10231131;28;1991;-63
2023/05/09 13:32:58;;;;;;;;;;;;;;;21.39;47.73;95285.00;10232280;29;2015;-64
2023/05/09 13:37:59;;;;;;;;;;;;;;;21.41;47.97;95276.81;10237094;28;1997;-64
2023/05/09 13:43:00;;;;;;;;;;;;;;;21.41;47.65;95271.56;10237675;28;2095;-63
2023/05/09 13:48:00;;;;;;;;;;;;;;;21.41;47.60;95263.66;10233620;28;1921;-64
2023/05/09 13:53:00;;;;;;;;;;;;;;;21.41;47.64;95263.66;10241753;28;1954;-63
2023/05/09 13:58:01;;;;;;;;;;;;;;;21.41;47.77;95251.22;10233891;28;4971;-64
2023/05/09 14:03:01;;;;;;;;;;;;;;;21.41;47.50;95247.81;10231731;28;2190;-64
2023/05/09 14:08:02;;;;;;;;;;;;;;;21.41;47.62;95240.66;10235453;28;2198;-64
2023/05/09 14:13:02;;;;;;;;;;;;;;;21.41;47.50;95238.03;10241269;28;1990;-63
2023/05/09 14:18:02;;;;;;;;;;;;;;;21.42;47.59;95230.91;10243094;28;2407;-64
2023/05/09 14:23:03;;;;;;;;;;;;;;;21.42;47.67;95212.47;10242952;28;1999;-64
2023/05/09 14:28:05;;;;;;;;;;;;;;;21.41;47.52;95230.13;10234826;28;2056;-64
2023/05/09 14:33:06;;;;;;;;;;;;;;;21.42;47.57;95217.72;10237443;29;1949;-63
2023/05/09 14:38:06;;;;;;;;;;;;;;;21.42;47.49;95207.19;10241873;28;2027;-63
2023/05/09 14:43:08;;;;;;;;;;;;;;;21.41;47.50;95203.75;10242274;28;2013;-64
2023/05/09 14:48:08;;;;;;;;;;;;;;;21.41;47.56;95187.94;10238362;28;1994;-63
2023/05/09 14:53:09;;;;;;;;;;;;;;;21.41;47.68;95181.91;10236753;29;2077;-63
2023/05/09 14:58:12;;;;;;;;;;;;;;;21.40;47.65;95183.75;10240889;28;4995;-63
2023/05/09 15:03:12;;;;;;;;;;;;;;;21.41;47.54;95174.00;10246589;28;2026;-65
2023/05/09 15:08:13;;;;;;;;;;;;;;;21.42;47.49;95175.53;10241254;28;2084;-63
2023/05/09 15:13:13;;;;;;;;;;;;;;;21.40;47.48;95167.94;10243794;28;1901;-63
2023/05/09 15:18:15;;;;;;;;;;;;;;;21.41;47.42;95155.53;10239244;28;1980;-63
2023/05/09 15:23:15;;;;;;;;;;;;;;;21.41;47.49;95158.19;10242295;28;1966;-63
2023/05/09 15:28:16;;;;;;;;;;;;;;;21.40;47.69;95151.31;10238574;28;1958;-63
2023/05/09 15:33:16;;;;;;;;;;;;;;;21.40;47.70;95146.06;10240902;28;2181;-63
2023/05/09 15:38:16;;;;;;;;;;;;;;;21.40;47.65;95135.50;10237621;28;1980;-63
2023/05/09 15:43:17;;;;;;;;;;;;;;;21.39;47.64;95136.59;10236412;28;2060;-63
2023/05/09 15:48:17;;;;;;;;;;;;;;;21.38;47.44;95127.13;10237334;28;1914;-63
2023/05/09 15:53:17;;;;;;;;;;;;;;;21.39;47.40;95131.31;10237370;28;2020;-64
2023/05/09 15:58:18;;;;;;;;;;;;;;;21.39;47.42;95124.16;10235988;28;4892;-63
2023/05/09 16:03:18;;;;;;;;;;;;;;;21.38;47.41;95121.84;10241455;28;2186;-64
2023/05/09 16:08:18;;;;;;;;;;;;;;;21.38;47.65;95100.75;10239821;28;1985;-64
2023/05/09 16:13:18;;;;;;;;;;;;;;;21.38;47.48;95100.75;10239616;28;2046;-64
2023/05/09 16:18:19;;;;;;;;;;;;;;;21.38;47.63;95096.25;10236755;28;2380;-63
2023/05/09 16:23:19;;;;;;;;;;;;;;;21.38;47.33;95098.09;10234319;29;2024;-62
2023/05/09 16:28:23;;;;;;;;;;;;;;;21.41;47.72;95089.63;10238022;28;1972;-62
2023/05/09 16:33:23;;;;;;;;;;;;;;;21.41;47.38;95087.00;10241482;29;1992;-61
2023/05/09 16:38:24;;;;;;;;;;;;;;;21.37;47.48;95065.69;10237513;28;1905;-61
2023/05/09 16:43:24;;;;;;;;;;;;;;;21.36;48.03;95066.78;10234240;28;1965;-61
2023/05/09 16:48:24;;;;;;;;;;;;;;;21.36;47.99;95058.88;10235633;28;1961;-61
2023/05/09 16:53:24;;;;;;;;;;;;;;;21.36;48.26;95042.25;10233525;28;2031;-61
2023/05/09 16:58:25;;;;;;;;;;;;;;;21.36;48.26;95052.81;10236839;28;4923;-61
2023/05/09 17:03:25;;;;;;;;;;;;;;;21.34;48.54;95039.94;10235666;28;1957;-61
2023/05/09 17:08:25;;;;;;;;;;;;;;;21.34;48.66;95044.41;10237267;28;1957;-61
2023/05/09 17:13:26;;;;;;;;;;;;;;;21.34;48.52;95036.50;10232638;28;1976;-61
2023/05/09 17:18:27;;;;;;;;;;;;;;;21.35;48.48;95038.09;10236294;28;1983;-61
2023/05/09 17:23:27;;;;;;;;;;;;;;;21.33;48.45;95041.00;10236114;28;1970;-60
2023/05/09 17:28:27;;;;;;;;;;;;;;;21.31;48.46;95037.88;10230639;29;1943;-61
2023/05/09 17:33:27;;;;;;;;;;;;;;;21.31;48.11;95027.31;10235948;28;2089;-61
2023/05/09 17:38:28;;;;;;;;;;;;;;;21.31;48.05;95026.56;10237727;28;1992;-61
2023/05/09 17:43:29;;;;;;;;;;;;;;;21.30;48.19;95017.06;10232649;28;2099;-61
2023/05/09 17:48:29;;;;;;;;;;;;;;;21.30;48.04;95014.44;10238057;28;1948;-61
2023/05/09 17:53:30;;;;;;;;;;;;;;;21.35;48.16;95001.16;10236929;28;1970;-64
2023/05/09 17:58:30;;;;;;;;;;;;;;;21.34;49.02;94995.09;10235258;28;4930;-61
2023/05/09 18:03:31;;;;;;;;;;;;;;;21.33;48.99;94990.91;10233088;28;2179;-59
2023/05/09 18:08:31;;;;;;;;;;;;;;;21.33;48.69;94995.41;10236030;28;1903;-62
2023/05/09 18:13:33;;;;;;;;;;;;;;;21.33;48.64;94985.63;10234891;28;1984;-60
2023/05/09 18:18:35;;;;;;;;;;;;;;;21.31;48.38;94985.16;10237341;29;1925;-60
2023/05/09 18:23:35;;;;;;;;;;;;;;;21.32;47.71;94978.03;10236256;28;1960;-62
2023/05/09 18:28:38;;;;;;;;;;;;;;;21.27;47.71;94968.34;10234629;28;1956;-61
2023/05/09 18:33:39;;;;;;;;;;;;;;;21.28;47.65;94971.78;10238618;28;1906;-62
2023/05/09 18:38:39;;;;;;;;;;;;;;;21.25;47.67;94962.59;10233213;28;1984;-62
2023/05/09 18:43:44;;;;;;;;;;;;;;;21.24;46.98;94963.69;10234588;28;1902;-61
2023/05/09 18:48:45;;;;;;;;;;;;;;;21.24;46.29;94957.63;10235169;28;1943;-61
2023/05/09 18:53:46;;;;;;;;;;;;;;;21.22;46.04;94959.78;10229864;28;1960;-61
2023/05/09 18:58:48;;;;;;;;;;;;;;;21.20;47.35;94959.31;10233563;28;4900;-62
2023/05/09 19:03:52;;;;;;;;;;;;;;;21.23;47.22;94964.75;10240035;28;2008;-61
2023/05/09 19:08:53;;;;;;;;;;;;;;;21.28;46.77;94958.59;10239658;28;1956;-61
2023/05/09 19:13:53;;;;;;;;;;;;;;;21.31;46.78;94963.31;10236846;28;1992;-61
2023/05/09 19:18:56;;;;;;;;;;;;;;;21.30;47.00;94959.88;10240124;28;1920;-60
2023/05/09 19:23:57;;;;;;;;;;;;;;;21.33;46.92;94958.50;10243711;28;2022;-62
2023/05/09 19:28:59;;;;;;;;;;;;;;;21.34;47.14;94970.59;10231684;28;2147;-61
2023/05/09 19:33:59;;;;;;;;;;;;;;;21.35;47.17;94969.53;10237676;29;2053;-61
2023/05/09 19:39:00;;;;;;;;;;;;;;;21.36;47.14;94971.09;10241937;28;2031;-60
2023/05/09 19:44:00;;;;;;;;;;;;;;;21.39;47.25;94965.97;10241315;29;2071;-62
2023/05/09 19:49:00;;;;;;;;;;;;;;;21.41;47.83;94968.34;10241232;28;2135;-62
2023/05/09 19:54:01;;;;;;;;;;;;;;;21.45;48.52;94964.78;10236783;29;1981;-61
2023/05/09 19:59:01;;;;;;;;;;;;;;;21.49;48.70;94970.28;10236157;28;4959;-61
2023/05/09 20:04:01;;;;;;;;;;;;;;;21.49;49.04;94976.34;10240116;28;2029;-61
2023/05/09 20:09:02;;;;;;;;;;;;;;;21.52;48.92;94974.94;10245765;28;1944;-62
2023/05/09 20:14:02;;;;;;;;;;;;;;;21.53;48.92;94979.94;10239922;28;1936;-63
2023/05/09 20:19:05;;;;;;;;;;;;;;;21.54;49.04;94976.22;10239267;28;1995;-62
2023/05/09 20:24:06;;;;;;;;;;;;;;;21.55;49.12;94979.63;10239760;28;2024;-62
2023/05/09 20:29:06;;;;;;;;;;;;;;;21.55;49.28;94979.63;10242101;28;1926;-63
2023/05/09 20:34:09;;;;;;;;;;;;;;;21.57;49.35;94988.03;10237362;28;2004;-63
2023/05/09 20:39:10;;;;;;;;;;;;;;;21.54;49.48;94986.75;10238754;28;2124;-63
2023/05/09 20:44:10;;;;;;;;;;;;;;;21.53;49.48;94987.84;10236305;28;2108;-64
2023/05/09 20:49:10;;;;;;;;;;;;;;;21.54;49.18;95034.22;10234722;28;1957;-63
2023/05/09 20:54:11;;;;;;;;;;;;;;;21.53;49.40;95076.72;10232890;28;2249;-63
2023/05/09 20:59:11;;;;;;;;;;;;;;;21.52;49.50;95075.16;10235074;28;2000;-63
2023/05/09 21:04:11;;;;;;;;;;;;;;;21.49;49.50;95073.91;10230837;29;1992;-63
2023/05/09 21:09:11;;;;;;;;;;;;;;;21.50;49.46;95077.28;10233298;28;1991;-61
2023/05/09 21:14:12;;;;;;;;;;;;;;;21.49;49.53;95091.56;10234335;29;2000;-61
2023/05/09 21:19:12;;;;;;;;;;;;;;;21.46;49.48;95087.66;10238658;28;1883;-62
2023/05/09 21:24:12;;;;;;;;;;;;;;;21.47;49.30;95099.00;10239083;28;1934;-61
2023/05/09 21:29:12;;;;;;;;;;;;;;;21.44;49.43;95095.09;10238225;28;1990;-62
2023/05/09 21:34:13;;;;;;;;;;;;;;;21.44;49.41;95105.63;10237142;28;1995;-62
2023/05/09 21:39:13;;;;;;;;;;;;;;;21.44;49.60;95113.53;10234052;28;1968;-62
2023/05/09 21:44:13;;;;;;;;;;;;;;;21.43;49.40;95117.25;10243541;28;2066;-64
2023/05/09 21:49:15;;;;;;;;;;;;;;;21.43;49.84;95109.31;10243848;28;1725;-64
2023/05/09 21:54:16;;;;;;;;;;;;;;;21.43;49.97;95113.84;10244683;28;1914;-64
2023/05/09 21:59:19;;;;;;;;;;;;;;;21.43;49.84;95127.78;10238893;28;5232;-64
2023/05/09 22:04:19;;;;;;;;;;;;;;;21.44;49.57;95126.72;10237448;28;2151;-64
2023/05/09 22:09:20;;;;;;;;;;;;;;;21.42;49.64;95128.88;10241147;28;2125;-64
2023/05/09 22:14:20;;;;;;;;;;;;;;;21.43;49.93;95119.13;10244432;28;1981;-63
2023/05/09 22:19:20;;;;;;;;;;;;;;;21.42;49.57;95118.31;10243334;28;2138;-64
2023/05/09 22:24:21;;;;;;;;;;;;;;;21.42;49.63;95120.19;10235815;28;1953;-63
2023/05/09 22:29:21;;;;;;;;;;;;;;;21.41;49.35;95116.75;10240916;28;1969;-64
2023/05/09 22:34:21;;;;;;;;;;;;;;;21.41;49.40;95113.34;10241613;28;1989;-64
2023/05/09 22:39:21;;;;;;;;;;;;;;;21.41;49.20;95113.34;10248295;28;1913;-64
2023/05/09 22:44:22;;;;;;;;;;;;;;;21.41;49.37;95108.09;10249540;28;2151;-64
2023/05/09 22:49:22;;;;;;;;;;;;;;;21.39;49.20;95110.22;10245370;28;2009;-64
2023/05/09 22:54:22;;;;;;;;;;;;;;;21.39;49.02;95110.22;10250312;28;1983;-64
2023/05/09 22:59:23;;;;;;;;;;;;;;;21.38;49.13;95101.53;10245783;28;5031;-64
2023/05/09 23:04:23;;;;;;;;;;;;;;;21.37;48.85;95102.59;10241626;28;1952;-64
2023/05/09 23:09:23;;;;;;;;;;;;;;;21.37;48.95;95102.59;10245548;28;1968;-64
2023/05/09 23:14:24;;;;;;;;;;;;;;;21.37;48.92;95099.19;10247432;28;1937;-64
2023/05/09 23:19:24;;;;;;;;;;;;;;;21.37;49.00;95096.56;10244711;28;1961;-64
2023/05/09 23:24:24;;;;;;;;;;;;;;;21.36;48.59;95098.41;10246437;28;1917;-64
2023/05/09 23:29:24;;;;;;;;;;;;;;;21.36;48.47;95093.13;10240583;28;2071;-64
2023/05/09 23:34:25;;;;;;;;;;;;;;;21.36;48.65;95087.06;10245869;28;1906;-64
2023/05/09 23:39:25;;;;;;;;;;;;;;;21.36;48.29;95087.06;10239318;28;2032;-64
2023/05/09 23:44:25;;;;;;;;;;;;;;;21.35;48.54;95082.91;10249804;28;1920;-64
2023/05/09 23:49:26;;;;;;;;;;;;;;;21.35;48.19;95086.28;10243544;28;2000;-64
2023/05/09 23:54:27;;;;;;;;;;;;;;;21.33;48.19;95077.91;10242591;28;1992;-64
2023/05/09 23:59:27;;;;;;;;;;;;;;;21.35;48.50;95080.25;10243018;28;4714;-64
